Time;durP1;ratioP1;P1;durP2;ratioP2;P2;SDS_P1;SDS_P2;PMS_P1;PMS_P2;Temp;Humidity;BMP_temperature;BMP_pressure;BME280_temperature;BME280_humidity;BME280_pressure;Samples;Min_cycle;Max_cycle;Signal;HPM_P1;HPM_P2
2023/11/24 00:00:00;;;;;;;6.03;2.53;;;;;;;;;;332178;29;1516;-58
2023/11/24 00:00:12;;;;;;;6.38;2.78;;;;;;;;;;332173;29;1441;-58
2023/11/24 00:00:23;;;;;;;6.22;2.83;;;;;;;;;;331283;29;1507;-56
2023/11/24 00:00:34;;;;;;;5.75;3.00;;;;;;;;;;330984;29;1439;-56
2023/11/24 00:00:46;;;;;;;5.55;2.88;;;;;;;;;;330860;29;1298;-57
2023/11/24 00:00:57;;;;;;;5.53;2.88;;;;;;;;;;329500;30;1296;-56
2023/11/24 00:01:08;;;;;;;4.22;2.42;;;;;;;;;;330894;29;1626;-56
2023/11/24 00:01:19;;;;;;;4.35;2.40;;;;;;;;;;329672;30;1359;-56
2023/11/24 00:01:32;;;;;;;4.35;2.50;;;;;;;;;;330812;29;1285;-56
2023/11/24 00:01:43;;;;;;;5.07;2.70;;;;;;;;;;329598;30;1449;-56
2023/11/24 00:01:54;;;;;;;5.55;2.70;;;;;;;;;;328390;30;1512;-57
2023/11/24 00:02:05;;;;;;;5.88;2.88;;;;;;;;;;328427;30;1420;-56
2023/11/24 00:02:16;;;;;;;5.63;2.85;;;;;;;;;;328327;30;1643;-57
2023/11/24 00:02:27;;;;;;;5.50;2.80;;;;;;;;;;328412;30;1063;-56
2023/11/24 00:02:38;;;;;;;5.90;2.85;;;;;;;;;;330825;29;1414;-56
2023/11/24 00:02:49;;;;;;;6.03;3.08;;;;;;;;;;330785;29;1514;-56
2023/11/24 00:03:00;;;;;;;6.40;3.10;;;;;;;;;;329636;30;1394;-56
2023/11/24 00:03:12;;;;;;;6.47;2.80;;;;;;;;;;330810;29;1434;-56
2023/11/24 00:03:24;;;;;;;6.07;2.65;;;;;;;;;;329587;30;1416;-56
2023/11/24 00:03:35;;;;;;;5.22;2.60;;;;;;;;;;329595;30;1425;-56
2023/11/24 00:03:46;;;;;;;6.25;2.60;;;;;;;;;;330865;29;1488;-56
2023/11/24 00:03:58;;;;;;;7.40;2.60;;;;;;;;;;330853;29;1315;-56
2023/11/24 00:04:10;;;;;;;7.32;2.50;;;;;;;;;;332032;29;1448;-56
2023/11/24 00:04:21;;;;;;;7.10;2.70;;;;;;;;;;332140;29;1398;-57
2023/11/24 00:04:33;;;;;;;6.18;2.67;;;;;;;;;;333401;29;931;-56
2023/11/24 00:04:44;;;;;;;5.38;2.63;;;;;;;;;;330891;29;1329;-57
2023/11/24 00:04:55;;;;;;;5.10;2.60;;;;;;;;;;330868;29;1451;-56
2023/11/24 00:05:07;;;;;;;5.00;2.42;;;;;;;;;;329607;30;1285;-56
2023/11/24 00:05:18;;;;;;;4.82;2.42;;;;;;;;;;329634;30;1517;-56
2023/11/24 00:05:29;;;;;;;6.13;2.60;;;;;;;;;;330731;29;1995;-56
2023/11/24 00:05:41;;;;;;;6.75;2.75;;;;;;;;;;330811;29;1331;-56
2023/11/24 00:05:52;;;;;;;6.80;2.67;;;;;;;;;;330815;29;1279;-56
2023/11/24 00:06:03;;;;;;;6.25;2.63;;;;;;;;;;329565;30;1430;-56
2023/11/24 00:06:14;;;;;;;6.20;2.50;;;;;;;;;;330954;29;1300;-56
2023/11/24 00:06:25;;;;;;;6.20;2.63;;;;;;;;;;332106;29;1531;-56
2023/11/24 00:06:37;;;;;;;7.05;2.67;;;;;;;;;;333133;29;1799;-57
2023/11/24 00:06:51;;;;;;;7.63;2.78;;;;;;;;;;332038;29;1583;-57
2023/11/24 00:07:03;;;;;;;6.43;2.75;;;;;;;;;;330851;29;1446;-58
2023/11/24 00:07:17;;;;;;;4.68;2.55;;;;;;;;;;332043;29;1299;-58
2023/11/24 00:07:29;;;;;;;4.05;2.45;;;;;;;;;;330878;29;1542;-58
2023/11/24 00:07:40;;;;;;;4.32;2.35;;;;;;;;;;332083;29;1485;-58
2023/11/24 00:07:51;;;;;;;4.88;2.63;;;;;;;;;;332141;29;1327;-58
2023/11/24 00:08:04;;;;;;;5.00;2.88;;;;;;;;;;330868;29;1506;-58
2023/11/24 00:08:15;;;;;;;4.80;2.95;;;;;;;;;;330762;29;1276;-57
2023/11/24 00:08:26;;;;;;;5.10;2.97;;;;;;;;;;329616;30;1330;-58
2023/11/24 00:08:37;;;;;;;6.68;2.90;;;;;;;;;;329564;30;1488;-58
2023/11/24 00:08:48;;;;;;;7.18;2.72;;;;;;;;;;332114;29;1530;-57
2023/11/24 00:08:59;;;;;;;6.75;2.78;;;;;;;;;;332139;29;1279;-58
2023/11/24 00:09:11;;;;;;;5.55;2.67;;;;;;;;;;332068;29;1184;-58
2023/11/24 00:09:23;;;;;;;4.97;2.75;;;;;;;;;;330914;29;1528;-57
2023/11/24 00:09:35;;;;;;;5.40;2.70;;;;;;;;;;330829;29;1398;-58
2023/11/24 00:09:46;;;;;;;5.72;2.72;;;;;;;;;;332069;29;1360;-58
2023/11/24 00:09:57;;;;;;;5.45;2.70;;;;;;;;;;332124;29;1460;-58
2023/11/24 00:10:09;;;;;;;5.00;2.72;;;;;;;;;;332151;29;1397;-58
2023/11/24 00:10:20;;;;;;;4.57;2.75;;;;;;;;;;330558;29;1407;-58
2023/11/24 00:10:31;;;;;;;7.07;2.53;;;;;;;;;;331718;29;1589;-58
2023/11/24 00:10:43;;;;;;;8.00;2.63;;;;;;;;;;332137;29;1428;-58
2023/11/24 00:10:55;;;;;;;7.78;2.78;;;;;;;;;;329448;29;1545;-57
2023/11/24 00:11:06;;;;;;;6.25;2.80;;;;;;;;;;329642;29;1740;-58
2023/11/24 00:11:17;;;;;;;5.40;2.80;;;;;;;;;;329646;30;1286;-58
2023/11/24 00:11:28;;;;;;;5.90;2.90;;;;;;;;;;330858;29;1532;-58
2023/11/24 00:11:41;;;;;;;5.78;2.90;;;;;;;;;;332121;29;1302;-57
2023/11/24 00:11:52;;;;;;;5.15;2.83;;;;;;;;;;332055;29;1642;-58
2023/11/24 00:12:03;;;;;;;5.28;2.80;;;;;;;;;;332129;29;1095;-57
2023/11/24 00:12:14;;;;;;;5.40;2.75;;;;;;;;;;330867;29;1508;-57
2023/11/24 00:12:25;;;;;;;6.05;2.88;;;;;;;;;;330887;29;1465;-58
2023/11/24 00:12:36;;;;;;;6.50;3.00;;;;;;;;;;332080;29;1570;-58
2023/11/24 00:12:47;;;;;;;6.75;2.92;;;;;;;;;;333288;29;1342;-58
2023/11/24 00:12:58;;;;;;;6.13;2.85;;;;;;;;;;333475;29;1585;-58
2023/11/24 00:13:11;;;;;;;6.53;2.58;;;;;;;;;;330941;29;1718;-57
2023/11/24 00:13:22;;;;;;;6.50;2.42;;;;;;;;;;330755;29;878;-58
2023/11/24 00:13:34;;;;;;;7.15;2.60;;;;;;;;;;329622;30;1350;-58
2023/11/24 00:13:45;;;;;;;6.07;2.70;;;;;;;;;;330899;29;1397;-58
2023/11/24 00:13:56;;;;;;;5.38;2.60;;;;;;;;;;329654;30;1520;-58
2023/11/24 00:14:07;;;;;;;5.28;2.47;;;;;;;;;;328333;30;1331;-58
2023/11/24 00:14:19;;;;;;;5.20;2.42;;;;;;;;;;328433;30;1468;-57
2023/11/24 00:14:30;;;;;;;5.97;2.58;;;;;;;;;;328382;30;1308;-57
2023/11/24 00:14:41;;;;;;;7.72;2.78;;;;;;;;;;329579;30;1607;-58
2023/11/24 00:14:52;;;;;;;8.27;2.70;;;;;;;;;;329620;30;1437;-58
2023/11/24 00:15:04;;;;;;;6.80;2.63;;;;;;;;;;330808;29;1415;-58
2023/11/24 00:15:15;;;;;;;5.07;2.58;;;;;;;;;;330744;29;1308;-58
2023/11/24 00:15:26;;;;;;;4.80;2.67;;;;;;;;;;328368;30;1578;-58
2023/11/24 00:15:37;;;;;;;5.28;2.90;;;;;;;;;;329636;30;1320;-58
2023/11/24 00:15:51;;;;;;;6.55;3.03;;;;;;;;;;330843;29;1530;-58
2023/11/24 00:16:04;;;;;;;7.55;3.08;;;;;;;;;;333383;29;1298;-58
2023/11/24 00:16:15;;;;;;;6.80;2.65;;;;;;;;;;333294;29;1292;-59
2023/11/24 00:16:28;;;;;;;6.28;2.78;;;;;;;;;;333408;29;1317;-58
2023/11/24 00:16:39;;;;;;;6.72;2.83;;;;;;;;;;333439;29;912;-58
2023/11/24 00:16:50;;;;;;;6.93;2.95;;;;;;;;;;332073;29;1346;-58
2023/11/24 00:17:01;;;;;;;5.68;2.67;;;;;;;;;;329852;29;1551;-58
2023/11/24 00:17:13;;;;;;;5.40;2.80;;;;;;;;;;329797;30;1516;-58
2023/11/24 00:17:24;;;;;;;5.15;2.85;;;;;;;;;;332316;29;1589;-58
2023/11/24 00:17:37;;;;;;;5.03;2.83;;;;;;;;;;332282;29;1542;-58
2023/11/24 00:17:50;;;;;;;4.95;2.78;;;;;;;;;;332312;29;1307;-59
2023/11/24 00:18:02;;;;;;;4.85;2.80;;;;;;;;;;333543;29;1303;-58
2023/11/24 00:18:13;;;;;;;4.80;2.83;;;;;;;;;;331095;29;1926;-58
2023/11/24 00:18:24;;;;;;;4.93;2.83;;;;;;;;;;329776;30;1300;-58
2023/11/24 00:18:37;;;;;;;4.90;2.80;;;;;;;;;;328586;30;1427;-58
2023/11/24 00:18:48;;;;;;;4.80;2.80;;;;;;;;;;328637;30;1462;-58
2023/11/24 00:18:59;;;;;;;5.22;2.70;;;;;;;;;;328611;30;1666;-57
2023/11/24 00:19:12;;;;;;;5.72;2.70;;;;;;;;;;330950;29;1607;-57
2023/11/24 00:19:23;;;;;;;5.88;2.60;;;;;;;;;;332313;29;1508;-58
2023/11/24 00:19:34;;;;;;;7.18;2.55;;;;;;;;;;333569;29;1287;-58
2023/11/24 00:19:45;;;;;;;6.72;2.50;;;;;;;;;;332300;29;1453;-59
2023/11/24 00:19:56;;;;;;;4.95;2.53;;;;;;;;;;333650;29;1573;-58
2023/11/24 00:20:08;;;;;;;5.05;2.80;;;;;;;;;;333605;29;1356;-59
2023/11/24 00:20:19;;;;;;;5.20;2.97;;;;;;;;;;331031;29;1353;-59
2023/11/24 00:20:30;;;;;;;6.10;3.08;;;;;;;;;;332324;29;1306;-58
2023/11/24 00:20:41;;;;;;;6.10;2.92;;;;;;;;;;333527;29;1485;-58
2023/11/24 00:20:53;;;;;;;6.57;2.95;;;;;;;;;;333348;29;1544;-58
2023/11/24 00:21:06;;;;;;;7.43;2.97;;;;;;;;;;331090;29;1564;-58
2023/11/24 00:21:17;;;;;;;8.90;3.35;;;;;;;;;;333644;29;951;-58
2023/11/24 00:21:28;;;;;;;8.40;3.40;;;;;;;;;;333522;29;1551;-58
2023/11/24 00:21:40;;;;;;;7.07;3.17;;;;;;;;;;331133;29;1338;-57
2023/11/24 00:21:52;;;;;;;6.15;2.80;;;;;;;;;;332403;29;940;-58
2023/11/24 00:22:03;;;;;;;6.15;2.90;;;;;;;;;;329782;29;1446;-58
2023/11/24 00:22:14;;;;;;;6.32;2.83;;;;;;;;;;329840;30;1284;-58
2023/11/24 00:22:25;;;;;;;5.57;2.90;;;;;;;;;;332396;29;1126;-58
2023/11/24 00:22:36;;;;;;;6.15;2.97;;;;;;;;;;329839;30;1539;-58
2023/11/24 00:22:48;;;;;;;6.10;3.08;;;;;;;;;;331084;29;1283;-58
2023/11/24 00:22:59;;;;;;;6.05;3.05;;;;;;;;;;332349;29;1586;-58
2023/11/24 00:23:10;;;;;;;5.90;3.00;;;;;;;;;;332263;29;1531;-58
2023/11/24 00:23:23;;;;;;;5.82;2.60;;;;;;;;;;329828;30;1546;-59
2023/11/24 00:23:35;;;;;;;5.78;2.53;;;;;;;;;;330967;29;1388;-58
2023/11/24 00:23:46;;;;;;;5.50;2.47;;;;;;;;;;333577;29;1515;-59
2023/11/24 00:23:57;;;;;;;6.82;2.60;;;;;;;;;;331051;29;1408;-58
2023/11/24 00:24:08;;;;;;;8.05;2.58;;;;;;;;;;332312;29;1043;-59
2023/11/24 00:24:20;;;;;;;6.43;2.72;;;;;;;;;;333656;29;1377;-58
2023/11/24 00:24:31;;;;;;;6.70;3.15;;;;;;;;;;332282;29;1713;-59
2023/11/24 00:24:43;;;;;;;5.22;3.13;;;;;;;;;;332332;29;1609;-58
2023/11/24 00:24:54;;;;;;;5.25;2.85;;;;;;;;;;333567;29;1474;-58
2023/11/24 00:25:05;;;;;;;4.50;2.50;;;;;;;;;;334892;29;1447;-58
2023/11/24 00:25:16;;;;;;;5.13;2.70;;;;;;;;;;332262;29;1412;-59
2023/11/24 00:25:31;;;;;;;5.10;2.80;;;;;;;;;;331025;29;1994;-58
2023/11/24 00:25:42;;;;;;;5.70;2.90;;;;;;;;;;329793;30;1504;-58
2023/11/24 00:25:54;;;;;;;5.43;2.78;;;;;;;;;;329800;30;1392;-58
2023/11/24 00:26:05;;;;;;;5.43;2.78;;;;;;;;;;331076;29;1547;-58
2023/11/24 00:26:20;;;;;;;5.55;2.60;;;;;;;;;;329837;30;1300;-58
2023/11/24 00:26:32;;;;;;;6.20;2.38;;;;;;;;;;331038;29;935;-57
2023/11/24 00:26:43;;;;;;;5.78;2.50;;;;;;;;;;333587;29;1404;-56
2023/11/24 00:26:54;;;;;;;5.38;2.47;;;;;;;;;;332284;29;1302;-56
2023/11/24 00:27:06;;;;;;;7.40;2.55;;;;;;;;;;331020;29;1407;-56
2023/11/24 00:27:17;;;;;;;7.70;2.75;;;;;;;;;;331067;29;1374;-56
2023/11/24 00:27:28;;;;;;;7.78;2.80;;;;;;;;;;331120;29;1450;-57
2023/11/24 00:27:39;;;;;;;5.82;2.88;;;;;;;;;;330997;29;1771;-57
2023/11/24 00:27:52;;;;;;;7.25;2.72;;;;;;;;;;332203;29;1501;-56
2023/11/24 00:28:04;;;;;;;6.97;2.90;;;;;;;;;;332322;29;1528;-56
2023/11/24 00:28:15;;;;;;;7.05;2.80;;;;;;;;;;331007;29;1399;-57
2023/11/24 00:28:26;;;;;;;6.35;3.00;;;;;;;;;;333409;29;1471;-57
2023/11/24 00:28:39;;;;;;;5.43;2.83;;;;;;;;;;333147;29;1328;-57
2023/11/24 00:28:51;;;;;;;6.32;2.80;;;;;;;;;;333649;29;1192;-56
2023/11/24 00:29:02;;;;;;;7.07;2.88;;;;;;;;;;334852;29;1274;-56
2023/11/24 00:29:13;;;;;;;6.95;3.17;;;;;;;;;;332170;29;1557;-57
2023/11/24 00:29:26;;;;;;;6.65;3.28;;;;;;;;;;333616;29;1266;-56
2023/11/24 00:29:37;;;;;;;6.82;3.15;;;;;;;;;;332251;29;1448;-57
2023/11/24 00:29:49;;;;;;;7.10;3.17;;;;;;;;;;330977;29;1019;-57
2023/11/24 00:30:00;;;;;;;6.82;3.15;;;;;;;;;;331054;29;1326;-57
2023/11/24 00:30:12;;;;;;;6.65;3.10;;;;;;;;;;329788;30;1543;-57
2023/11/24 00:30:23;;;;;;;5.88;3.08;;;;;;;;;;331002;29;1349;-57
2023/11/24 00:30:35;;;;;;;6.43;3.00;;;;;;;;;;331044;29;1778;-57
2023/11/24 00:30:46;;;;;;;7.65;2.92;;;;;;;;;;333568;29;1618;-56
2023/11/24 00:30:57;;;;;;;8.35;3.17;;;;;;;;;;332242;29;1592;-56
2023/11/24 00:31:09;;;;;;;7.75;3.17;;;;;;;;;;331378;29;1486;-56
2023/11/24 00:31:20;;;;;;;5.57;2.95;;;;;;;;;;330958;29;1514;-57
2023/11/24 00:31:31;;;;;;;5.25;2.95;;;;;;;;;;330941;29;1508;-56
2023/11/24 00:31:43;;;;;;;6.05;2.97;;;;;;;;;;331053;29;1618;-57
2023/11/24 00:31:54;;;;;;;8.63;3.20;;;;;;;;;;328499;30;1516;-57
2023/11/24 00:32:06;;;;;;;8.10;2.90;;;;;;;;;;328467;30;1393;-57
2023/11/24 00:32:17;;;;;;;6.72;2.72;;;;;;;;;;328641;30;1329;-57
2023/11/24 00:32:29;;;;;;;4.43;2.70;;;;;;;;;;329798;30;1287;-56
2023/11/24 00:32:40;;;;;;;4.60;2.53;;;;;;;;;;332231;29;1306;-57
2023/11/24 00:32:51;;;;;;;7.03;2.70;;;;;;;;;;332319;29;1509;-57
2023/11/24 00:33:02;;;;;;;7.03;2.85;;;;;;;;;;332299;29;1365;-57
2023/11/24 00:33:15;;;;;;;7.63;2.90;;;;;;;;;;330980;29;1436;-57
2023/11/24 00:33:28;;;;;;;5.82;2.95;;;;;;;;;;329805;30;1293;-57
2023/11/24 00:33:39;;;;;;;5.60;2.92;;;;;;;;;;329753;30;1315;-57
2023/11/24 00:33:50;;;;;;;6.82;2.92;;;;;;;;;;329845;30;1303;-57
2023/11/24 00:34:01;;;;;;;7.32;3.00;;;;;;;;;;329799;30;1429;-56
2023/11/24 00:34:12;;;;;;;6.85;2.95;;;;;;;;;;328607;30;1516;-56
2023/11/24 00:34:24;;;;;;;4.82;2.80;;;;;;;;;;329778;30;1512;-57
2023/11/24 00:34:38;;;;;;;4.63;2.70;;;;;;;;;;329774;30;1362;-56
2023/11/24 00:34:49;;;;;;;4.38;2.70;;;;;;;;;;331050;29;1280;-57
2023/11/24 00:35:00;;;;;;;5.28;2.90;;;;;;;;;;331151;29;2507;-56
2023/11/24 00:35:11;;;;;;;5.97;3.08;;;;;;;;;;331370;29;2630;-56
2023/11/24 00:35:23;;;;;;;7.63;3.30;;;;;;;;;;332308;29;1504;-56
2023/11/24 00:35:35;;;;;;;6.55;3.15;;;;;;;;;;333515;29;1484;-56
2023/11/24 00:35:46;;;;;;;5.97;3.10;;;;;;;;;;331017;29;1561;-56
2023/11/24 00:35:57;;;;;;;5.72;3.10;;;;;;;;;;329832;30;1577;-56
2023/11/24 00:36:08;;;;;;;6.15;2.85;;;;;;;;;;328748;30;1685;-57
2023/11/24 00:36:20;;;;;;;5.75;2.65;;;;;;;;;;331018;29;1461;-56
2023/11/24 00:36:32;;;;;;;4.82;2.47;;;;;;;;;;332295;29;1473;-56
2023/11/24 00:36:44;;;;;;;4.53;2.65;;;;;;;;;;332334;29;1437;-57
2023/11/24 00:36:56;;;;;;;5.57;2.83;;;;;;;;;;331055;29;1462;-57
2023/11/24 00:37:07;;;;;;;6.05;2.88;;;;;;;;;;333563;29;1535;-56
2023/11/24 00:37:18;;;;;;;6.20;2.80;;;;;;;;;;332307;29;1519;-56
2023/11/24 00:37:29;;;;;;;5.03;2.70;;;;;;;;;;332239;29;1350;-57
2023/11/24 00:37:40;;;;;;;4.97;2.80;;;;;;;;;;332269;29;1478;-56
2023/11/24 00:37:52;;;;;;;6.55;2.83;;;;;;;;;;332355;29;1340;-56
2023/11/24 00:38:03;;;;;;;6.20;2.75;;;;;;;;;;329788;30;1291;-57
2023/11/24 00:38:14;;;;;;;7.20;2.70;;;;;;;;;;330967;29;1751;-56
2023/11/24 00:38:25;;;;;;;6.45;3.00;;;;;;;;;;332310;29;1290;-57
2023/11/24 00:38:37;;;;;;;6.35;3.10;;;;;;;;;;332199;29;1698;-57
2023/11/24 00:38:51;;;;;;;4.70;2.90;;;;;;;;;;333420;29;1286;-56
2023/11/24 00:39:04;;;;;;;4.85;2.60;;;;;;;;;;333584;29;1282;-56
2023/11/24 00:39:15;;;;;;;6.10;2.72;;;;;;;;;;333584;29;1381;-56
2023/11/24 00:39:26;;;;;;;6.20;2.78;;;;;;;;;;331011;29;1386;-56
2023/11/24 00:39:37;;;;;;;4.88;2.67;;;;;;;;;;332274;29;1408;-56
2023/11/24 00:39:51;;;;;;;4.60;2.75;;;;;;;;;;333539;29;1476;-56
2023/11/24 00:40:02;;;;;;;6.65;2.80;;;;;;;;;;333543;29;1563;-56
2023/11/24 00:40:14;;;;;;;7.65;3.00;;;;;;;;;;333576;29;1545;-56
2023/11/24 00:40:25;;;;;;;6.88;3.13;;;;;;;;;;332296;29;1282;-57
2023/11/24 00:40:36;;;;;;;5.63;3.28;;;;;;;;;;329810;29;1318;-56
2023/11/24 00:40:47;;;;;;;5.28;3.20;;;;;;;;;;332031;29;1585;-56
2023/11/24 00:41:02;;;;;;;5.32;3.13;;;;;;;;;;332161;29;1657;-56
2023/11/24 00:41:13;;;;;;;5.18;3.08;;;;;;;;;;331861;29;1344;-57
2023/11/24 00:41:24;;;;;;;4.85;3.10;;;;;;;;;;332214;29;1401;-56
2023/11/24 00:41:36;;;;;;;6.05;3.22;;;;;;;;;;332335;29;1802;-56
2023/11/24 00:41:47;;;;;;;7.38;3.08;;;;;;;;;;331056;29;1321;-56
2023/11/24 00:42:00;;;;;;;8.85;3.15;;;;;;;;;;329794;30;1407;-57
2023/11/24 00:42:11;;;;;;;7.35;2.90;;;;;;;;;;329829;30;1533;-57
2023/11/24 00:42:23;;;;;;;5.88;2.63;;;;;;;;;;331033;29;1284;-57
2023/11/24 00:42:35;;;;;;;5.28;2.53;;;;;;;;;;329735;30;1268;-56
2023/11/24 00:42:46;;;;;;;5.63;2.70;;;;;;;;;;331074;29;1469;-56
2023/11/24 00:42:57;;;;;;;6.38;2.92;;;;;;;;;;329701;30;1314;-56
2023/11/24 00:43:08;;;;;;;6.03;2.90;;;;;;;;;;329850;30;1519;-56
2023/11/24 00:43:21;;;;;;;5.63;2.67;;;;;;;;;;331044;29;1371;-56
2023/11/24 00:43:33;;;;;;;5.13;2.78;;;;;;;;;;331017;29;1324;-56
2023/11/24 00:43:44;;;;;;;6.97;2.90;;;;;;;;;;332239;29;1320;-57
2023/11/24 00:43:55;;;;;;;6.70;2.78;;;;;;;;;;332327;29;1278;-57
2023/11/24 00:44:06;;;;;;;6.35;2.83;;;;;;;;;;333489;29;1376;-57
2023/11/24 00:44:17;;;;;;;7.72;2.80;;;;;;;;;;333593;29;1540;-57
2023/11/24 00:44:28;;;;;;;8.95;2.80;;;;;;;;;;334778;29;1330;-56
2023/11/24 00:44:39;;;;;;;8.50;2.63;;;;;;;;;;332218;29;1435;-56
2023/11/24 00:44:51;;;;;;;6.65;2.80;;;;;;;;;;331096;29;1270;-56
2023/11/24 00:45:03;;;;;;;7.47;2.88;;;;;;;;;;332318;29;1410;-56
2023/11/24 00:45:14;;;;;;;6.40;3.00;;;;;;;;;;332191;29;1283;-56
2023/11/24 00:45:25;;;;;;;6.00;2.88;;;;;;;;;;329796;30;1918;-56
2023/11/24 00:45:37;;;;;;;5.53;2.85;;;;;;;;;;331056;29;1320;-56
2023/11/24 00:45:48;;;;;;;5.05;2.78;;;;;;;;;;331001;29;1307;-56
2023/11/24 00:45:59;;;;;;;6.20;2.90;;;;;;;;;;329871;29;1329;-55
2023/11/24 00:46:11;;;;;;;6.95;3.08;;;;;;;;;;329880;29;1570;-56
2023/11/24 00:46:22;;;;;;;7.68;3.35;;;;;;;;;;329764;30;1630;-55
2023/11/24 00:46:33;;;;;;;7.47;3.22;;;;;;;;;;331104;29;1274;-56
2023/11/24 00:46:44;;;;;;;5.40;2.85;;;;;;;;;;331057;29;1426;-56
2023/11/24 00:46:55;;;;;;;5.35;2.70;;;;;;;;;;331023;29;1361;-55
2023/11/24 00:47:06;;;;;;;4.85;2.70;;;;;;;;;;329828;30;1451;-55
2023/11/24 00:47:17;;;;;;;4.97;2.67;;;;;;;;;;329800;30;1309;-56
2023/11/24 00:47:30;;;;;;;5.25;2.70;;;;;;;;;;329757;30;1325;-55
2023/11/24 00:47:42;;;;;;;7.15;2.95;;;;;;;;;;329823;30;1426;-55
2023/11/24 00:47:53;;;;;;;7.80;3.08;;;;;;;;;;329849;30;1508;-56
2023/11/24 00:48:06;;;;;;;6.40;2.92;;;;;;;;;;329788;30;1289;-56
2023/11/24 00:48:19;;;;;;;6.35;2.80;;;;;;;;;;329758;30;1295;-56
2023/11/24 00:48:31;;;;;;;6.60;2.80;;;;;;;;;;329875;30;1356;-56
2023/11/24 00:48:42;;;;;;;7.28;2.80;;;;;;;;;;331030;29;1341;-56
2023/11/24 00:48:53;;;;;;;7.15;2.83;;;;;;;;;;331006;29;1358;-56
2023/11/24 00:49:04;;;;;;;6.22;2.65;;;;;;;;;;332362;29;1533;-56
2023/11/24 00:49:15;;;;;;;6.13;2.60;;;;;;;;;;332281;29;1531;-56
2023/11/24 00:49:28;;;;;;;6.32;2.53;;;;;;;;;;331027;29;964;-56
2023/11/24 00:49:39;;;;;;;5.68;2.47;;;;;;;;;;331079;29;1294;-55
2023/11/24 00:49:50;;;;;;;6.30;2.70;;;;;;;;;;330994;29;1515;-55
2023/11/24 00:50:02;;;;;;;6.10;2.78;;;;;;;;;;329755;30;1406;-56
2023/11/24 00:50:13;;;;;;;6.90;3.00;;;;;;;;;;331108;29;1314;-55
2023/11/24 00:50:24;;;;;;;6.50;3.20;;;;;;;;;;329740;30;1785;-56
2023/11/24 00:50:35;;;;;;;6.65;3.10;;;;;;;;;;331074;29;1495;-55
2023/11/24 00:50:46;;;;;;;6.28;2.97;;;;;;;;;;332300;29;1342;-56
2023/11/24 00:50:57;;;;;;;6.60;2.75;;;;;;;;;;333422;29;1445;-55
2023/11/24 00:51:08;;;;;;;6.38;2.80;;;;;;;;;;333555;29;1272;-55
2023/11/24 00:51:19;;;;;;;6.57;2.88;;;;;;;;;;333211;29;1402;-55
2023/11/24 00:51:30;;;;;;;6.45;3.05;;;;;;;;;;331033;29;1299;-55
2023/11/24 00:51:41;;;;;;;6.45;3.30;;;;;;;;;;331063;29;1290;-56
2023/11/24 00:51:53;;;;;;;6.65;3.28;;;;;;;;;;332254;29;1295;-56
2023/11/24 00:52:04;;;;;;;6.28;3.20;;;;;;;;;;333571;29;1505;-56
2023/11/24 00:52:15;;;;;;;7.63;3.20;;;;;;;;;;332372;29;1325;-56
2023/11/24 00:52:27;;;;;;;7.05;2.97;;;;;;;;;;333549;29;1302;-55
2023/11/24 00:52:38;;;;;;;6.25;2.92;;;;;;;;;;332255;29;1309;-55
2023/11/24 00:52:49;;;;;;;5.88;2.80;;;;;;;;;;332356;29;1450;-55
2023/11/24 00:53:01;;;;;;;6.50;2.85;;;;;;;;;;332372;29;924;-56
2023/11/24 00:53:12;;;;;;;7.30;3.22;;;;;;;;;;333495;29;1516;-56
2023/11/24 00:53:23;;;;;;;6.93;3.33;;;;;;;;;;333562;29;1381;-56
2023/11/24 00:53:35;;;;;;;6.85;3.28;;;;;;;;;;332316;29;1350;-56
2023/11/24 00:53:46;;;;;;;6.70;3.05;;;;;;;;;;330869;29;1537;-56
2023/11/24 00:53:57;;;;;;;6.30;3.00;;;;;;;;;;328509;29;1287;-55
2023/11/24 00:54:09;;;;;;;6.40;2.95;;;;;;;;;;329812;30;1319;-56
2023/11/24 00:54:20;;;;;;;6.70;3.20;;;;;;;;;;331057;29;1424;-56
2023/11/24 00:54:31;;;;;;;6.85;3.33;;;;;;;;;;332264;29;1666;-55
2023/11/24 00:54:42;;;;;;;5.95;3.08;;;;;;;;;;333617;29;1394;-56
2023/11/24 00:54:53;;;;;;;5.13;2.70;;;;;;;;;;333561;29;1362;-56
2023/11/24 00:55:05;;;;;;;5.70;2.63;;;;;;;;;;334782;29;1504;-56
2023/11/24 00:55:16;;;;;;;6.00;2.78;;;;;;;;;;332292;29;1313;-56
2023/11/24 00:55:30;;;;;;;6.43;3.10;;;;;;;;;;331056;29;1296;-56
2023/11/24 00:55:41;;;;;;;7.10;3.28;;;;;;;;;;332217;29;1276;-56
2023/11/24 00:55:52;;;;;;;7.47;3.00;;;;;;;;;;329922;29;1443;-56
2023/11/24 00:56:03;;;;;;;7.68;2.80;;;;;;;;;;331001;29;1290;-56
2023/11/24 00:56:14;;;;;;;6.95;2.88;;;;;;;;;;331016;29;1490;-55
2023/11/24 00:56:25;;;;;;;5.85;2.83;;;;;;;;;;332300;29;1275;-55
2023/11/24 00:56:37;;;;;;;6.15;2.92;;;;;;;;;;329844;30;1399;-56
2023/11/24 00:56:48;;;;;;;7.13;3.10;;;;;;;;;;332267;29;1414;-56
2023/11/24 00:56:59;;;;;;;7.63;3.20;;;;;;;;;;331067;29;1378;-56
2023/11/24 00:57:10;;;;;;;7.38;3.10;;;;;;;;;;333459;29;1443;-56
2023/11/24 00:57:21;;;;;;;6.85;3.00;;;;;;;;;;333596;29;1310;-56
2023/11/24 00:57:33;;;;;;;5.97;2.78;;;;;;;;;;332202;29;1413;-57
2023/11/24 00:57:44;;;;;;;6.13;2.90;;;;;;;;;;332309;29;1364;-56
2023/11/24 00:57:55;;;;;;;6.85;3.08;;;;;;;;;;333530;29;1433;-56
2023/11/24 00:58:06;;;;;;;7.60;3.17;;;;;;;;;;332211;29;1391;-56
2023/11/24 00:58:17;;;;;;;7.25;3.13;;;;;;;;;;331012;29;1107;-56
2023/11/24 00:58:29;;;;;;;7.13;3.35;;;;;;;;;;331972;29;1303;-56
2023/11/24 00:58:40;;;;;;;7.40;3.15;;;;;;;;;;329376;30;1486;-56
2023/11/24 00:58:51;;;;;;;6.93;3.15;;;;;;;;;;330994;29;2050;-56
2023/11/24 00:59:03;;;;;;;6.43;2.92;;;;;;;;;;329782;30;1507;-56
2023/11/24 00:59:14;;;;;;;6.05;3.10;;;;;;;;;;329803;30;1519;-56
2023/11/24 00:59:25;;;;;;;5.90;2.97;;;;;;;;;;328451;30;1412;-56
2023/11/24 00:59:36;;;;;;;9.55;3.33;;;;;;;;;;329814;30;1537;-56
2023/11/24 00:59:47;;;;;;;10.43;3.22;;;;;;;;;;329793;30;1477;-56
2023/11/24 00:59:58;;;;;;;9.80;3.30;;;;;;;;;;328502;30;1414;-56
2023/11/24 01:00:09;;;;;;;7.93;3.00;;;;;;;;;;328520;30;1276;-56
2023/11/24 01:00:23;;;;;;;9.13;3.28;;;;;;;;;;329854;30;869;-56
2023/11/24 01:00:34;;;;;;;8.00;3.08;;;;;;;;;;330894;29;1510;-55
2023/11/24 01:00:45;;;;;;;6.90;3.05;;;;;;;;;;331122;29;1440;-56
2023/11/24 01:00:56;;;;;;;5.57;2.95;;;;;;;;;;332167;29;1531;-56
2023/11/24 01:01:09;;;;;;;5.82;3.10;;;;;;;;;;331076;29;1279;-56
2023/11/24 01:01:20;;;;;;;6.20;3.13;;;;;;;;;;329591;30;1333;-55
2023/11/24 01:01:31;;;;;;;5.57;2.95;;;;;;;;;;331020;29;1269;-56
2023/11/24 01:01:42;;;;;;;6.95;3.03;;;;;;;;;;330975;29;1306;-56
2023/11/24 01:01:53;;;;;;;6.47;2.90;;;;;;;;;;331013;29;1511;-57
2023/11/24 01:02:05;;;;;;;6.80;3.10;;;;;;;;;;329779;30;1520;-56
2023/11/24 01:02:17;;;;;;;8.30;3.47;;;;;;;;;;329793;30;1502;-56
2023/11/24 01:02:28;;;;;;;9.13;3.58;;;;;;;;;;329703;30;1340;-56
2023/11/24 01:02:39;;;;;;;7.80;3.50;;;;;;;;;;331029;29;1513;-56
2023/11/24 01:02:50;;;;;;;6.82;3.35;;;;;;;;;;330981;29;1438;-56
2023/11/24 01:03:02;;;;;;;6.80;3.10;;;;;;;;;;331030;29;1223;-56
2023/11/24 01:03:13;;;;;;;6.60;3.08;;;;;;;;;;330938;29;1307;-56
2023/11/24 01:03:24;;;;;;;6.75;3.00;;;;;;;;;;331009;29;1505;-56
2023/11/24 01:03:35;;;;;;;5.80;3.10;;;;;;;;;;331037;29;1744;-56
2023/11/24 01:03:46;;;;;;;5.80;3.08;;;;;;;;;;330956;29;1292;-56
2023/11/24 01:03:58;;;;;;;5.57;3.08;;;;;;;;;;329746;30;1378;-56
2023/11/24 01:04:09;;;;;;;5.22;2.90;;;;;;;;;;331024;29;1335;-56
2023/11/24 01:04:20;;;;;;;4.88;2.85;;;;;;;;;;329767;30;1441;-56
2023/11/24 01:04:32;;;;;;;6.38;2.90;;;;;;;;;;329726;30;1280;-56
2023/11/24 01:04:43;;;;;;;7.85;3.10;;;;;;;;;;329764;30;1653;-56
2023/11/24 01:04:54;;;;;;;7.50;3.10;;;;;;;;;;329702;30;1380;-56
2023/11/24 01:05:05;;;;;;;7.03;3.25;;;;;;;;;;330675;29;1501;-56
2023/11/24 01:05:19;;;;;;;6.30;3.28;;;;;;;;;;331096;29;1604;-56
2023/11/24 01:05:31;;;;;;;6.03;3.13;;;;;;;;;;330855;29;1912;-56
2023/11/24 01:05:42;;;;;;;7.00;3.20;;;;;;;;;;333491;29;1311;-55
2023/11/24 01:05:54;;;;;;;7.45;3.40;;;;;;;;;;332311;29;1446;-56
2023/11/24 01:06:05;;;;;;;7.57;3.35;;;;;;;;;;331064;29;1400;-56
2023/11/24 01:06:17;;;;;;;6.45;3.20;;;;;;;;;;329759;30;1304;-56
2023/11/24 01:06:28;;;;;;;7.25;3.20;;;;;;;;;;331201;29;1451;-56
2023/11/24 01:06:39;;;;;;;8.45;3.30;;;;;;;;;;333564;29;1494;-56
2023/11/24 01:06:50;;;;;;;8.70;3.40;;;;;;;;;;330897;29;1520;-55
2023/11/24 01:07:02;;;;;;;8.05;3.28;;;;;;;;;;333522;29;1422;-55
2023/11/24 01:07:13;;;;;;;7.25;3.10;;;;;;;;;;332275;29;1126;-56
2023/11/24 01:07:25;;;;;;;7.03;2.90;;;;;;;;;;333455;29;1334;-56
2023/11/24 01:07:36;;;;;;;6.30;2.78;;;;;;;;;;333520;29;1517;-56
2023/11/24 01:07:47;;;;;;;6.93;2.80;;;;;;;;;;332284;29;1767;-56
2023/11/24 01:07:58;;;;;;;8.63;2.97;;;;;;;;;;331060;29;1308;-56
2023/11/24 01:08:09;;;;;;;9.07;3.20;;;;;;;;;;331076;29;1380;-56
2023/11/24 01:08:21;;;;;;;7.97;3.40;;;;;;;;;;332192;29;1308;-56
2023/11/24 01:08:32;;;;;;;7.20;3.22;;;;;;;;;;332284;29;1288;-56
2023/11/24 01:08:43;;;;;;;6.13;3.28;;;;;;;;;;332245;29;1280;-57
2023/11/24 01:08:54;;;;;;;5.55;3.25;;;;;;;;;;333470;29;1318;-57
2023/11/24 01:09:05;;;;;;;5.82;3.50;;;;;;;;;;332279;29;1295;-56
2023/11/24 01:09:17;;;;;;;5.20;3.20;;;;;;;;;;332167;29;1514;-56
2023/11/24 01:09:28;;;;;;;7.38;3.25;;;;;;;;;;333537;29;1295;-56
2023/11/24 01:09:39;;;;;;;7.75;3.30;;;;;;;;;;333527;29;1409;-56
2023/11/24 01:09:50;;;;;;;7.68;3.30;;;;;;;;;;333517;29;1460;-56
2023/11/24 01:10:01;;;;;;;8.75;3.30;;;;;;;;;;333548;29;1274;-56
2023/11/24 01:10:13;;;;;;;8.55;3.10;;;;;;;;;;332329;29;983;-56
2023/11/24 01:10:24;;;;;;;10.38;3.35;;;;;;;;;;331066;29;1299;-56
2023/11/24 01:10:35;;;;;;;8.57;3.30;;;;;;;;;;332342;29;1567;-56
2023/11/24 01:10:47;;;;;;;10.45;3.33;;;;;;;;;;332312;29;1442;-56